sensor_id;sensor_type;location;lat;lon;timestamp;temperature;humidity
35645;DHT22;21764;52.042;6.830;2022-12-20T01:23:58;10.50;99.90
35645;DHT22;21764;52.042;6.830;2022-12-20T01:29:20;10.50;99.90
35645;DHT22;21764;52.042;6.830;2022-12-20T01:40:21;10.60;99.90
35645;DHT22;21764;52.042;6.830;2022-12-20T01:45:28;10.60;99.90
35645;DHT22;21764;52.042;6.830;2022-12-20T01:50:29;10.70;99.90
35645;DHT22;21764;52.042;6.830;2022-12-20T01:55:30;10.70;99.90
35645;DHT22;21764;52.042;6.830;2022-12-20T02:00:31;10.70;99.90
35645;DHT22;21764;52.042;6.830;2022-12-20T02:28:27;11.00;99.90
35645;DHT22;21764;52.042;6.830;2022-12-20T02:33:30;11.00;99.90
35645;DHT22;21764;52.042;6.830;2022-12-20T02:38:37;10.80;99.90
35645;DHT22;21764;52.042;6.830;2022-12-20T02:43:40;10.80;99.90
35645;DHT22;21764;52.042;6.830;2022-12-20T02:49:04;10.60;99.90
35645;DHT22;21764;52.042;6.830;2022-12-20T02:54:06;10.50;99.90
35645;DHT22;21764;52.042;6.830;2022-12-20T03:10:58;10.30;99.90
35645;DHT22;21764;52.042;6.830;2022-12-20T03:16:02;10.20;99.90
35645;DHT22;21764;52.042;6.830;2022-12-20T05:36:22;10.50;99.90
35645;DHT22;21764;52.042;6.830;2022-12-20T05:47:19;10.50;99.90
35645;DHT22;21764;52.042;6.830;2022-12-20T05:52:20;10.60;99.90
35645;DHT22;21764;52.042;6.830;2022-12-20T06:08:54;10.60;99.90
35645;DHT22;21764;52.042;6.830;2022-12-20T06:13:55;10.50;99.90
35645;DHT22;21764;52.042;6.830;2022-12-20T06:18:56;10.50;99.90
35645;DHT22;21764;52.042;6.830;2022-12-20T06:24:27;10.50;99.90
35645;DHT22;21764;52.042;6.830;2022-12-20T06:29:29;10.50;99.90
35645;DHT22;21764;52.042;6.830;2022-12-20T06:40:26;10.50;99.90
35645;DHT22;21764;52.042;6.830;2022-12-20T06:45:27;10.50;99.90
35645;DHT22;21764;52.042;6.830;2022-12-20T06:56:25;10.50;99.90
35645;DHT22;21764;52.042;6.830;2022-12-20T07:12:42;10.40;99.90
35645;DHT22;21764;52.042;6.830;2022-12-20T07:17:52;10.40;99.90
35645;DHT22;21764;52.042;6.830;2022-12-20T07:22:53;10.50;99.90
35645;DHT22;21764;52.042;6.830;2022-12-20T07:28:01;10.50;99.90
35645;DHT22;21764;52.042;6.830;2022-12-20T07:33:02;10.40;99.90
35645;DHT22;21764;52.042;6.830;2022-12-20T07:38:03;10.40;99.90
35645;DHT22;21764;52.042;6.830;2022-12-20T08:12:34;10.40;99.90
35645;DHT22;21764;52.042;6.830;2022-12-20T08:30:06;10.70;99.90
35645;DHT22;21764;52.042;6.830;2022-12-20T08:41:10;11.10;99.90
35645;DHT22;21764;52.042;6.830;2022-12-20T08:46:11;11.10;99.90
35645;DHT22;21764;52.042;6.830;2022-12-20T08:57:09;11.50;99.90
35645;DHT22;21764;52.042;6.830;2022-12-20T09:02:10;11.70;99.90
35645;DHT22;21764;52.042;6.830;2022-12-20T09:07:10;11.60;99.90
35645;DHT22;21764;52.042;6.830;2022-12-20T09:12:11;11.70;99.90
35645;DHT22;21764;52.042;6.830;2022-12-20T09:17:12;12.00;99.90
35645;DHT22;21764;52.042;6.830;2022-12-20T09:22:12;11.90;99.90
35645;DHT22;21764;52.042;6.830;2022-12-20T09:27:13;11.80;99.90
35645;DHT22;21764;52.042;6.830;2022-12-20T09:32:14;11.90;99.90
35645;DHT22;21764;52.042;6.830;2022-12-20T09:37:14;12.10;99.90
35645;DHT22;21764;52.042;6.830;2022-12-20T09:42:15;12.00;99.90
35645;DHT22;21764;52.042;6.830;2022-12-20T09:47:19;11.90;99.90
35645;DHT22;21764;52.042;6.830;2022-12-20T09:52:48;11.90;99.90
35645;DHT22;21764;52.042;6.830;2022-12-20T10:03:30;11.40;99.90
35645;DHT22;21764;52.042;6.830;2022-12-20T10:30:24;11.50;99.90
35645;DHT22;21764;52.042;6.830;2022-12-20T10:40:42;11.50;99.90
35645;DHT22;21764;52.042;6.830;2022-12-20T10:45:54;11.50;99.90
35645;DHT22;21764;52.042;6.830;2022-12-20T10:56:21;11.30;99.90
35645;DHT22;21764;52.042;6.830;2022-12-20T11:01:30;11.30;99.90
35645;DHT22;21764;52.042;6.830;2022-12-20T11:11:37;11.60;99.90
35645;DHT22;21764;52.042;6.830;2022-12-20T11:16:39;11.70;99.90
35645;DHT22;21764;52.042;6.830;2022-12-20T11:22:37;11.80;99.90
35645;DHT22;21764;52.042;6.830;2022-12-20T11:38:47;11.90;99.90
35645;DHT22;21764;52.042;6.830;2022-12-20T11:54:56;11.70;99.90
35645;DHT22;21764;52.042;6.830;2022-12-20T12:00:00;11.60;99.90
35645;DHT22;21764;52.042;6.830;2022-12-20T12:05:28;11.50;99.90
35645;DHT22;21764;52.042;6.830;2022-12-20T12:22:18;11.30;99.90
35645;DHT22;21764;52.042;6.830;2022-12-20T12:27:26;11.20;99.90
35645;DHT22;21764;52.042;6.830;2022-12-20T12:32:37;11.30;99.90
35645;DHT22;21764;52.042;6.830;2022-12-20T12:59:19;11.30;99.90
35645;DHT22;21764;52.042;6.830;2022-12-20T13:04:50;11.20;99.90
35645;DHT22;21764;52.042;6.830;2022-12-20T13:09:50;11.20;99.90
35645;DHT22;21764;52.042;6.830;2022-12-20T13:14:51;11.10;99.90
35645;DHT22;21764;52.042;6.830;2022-12-20T13:19:53;11.10;99.90
35645;DHT22;21764;52.042;6.830;2022-12-20T13:25:18;11.10;99.90
35645;DHT22;21764;52.042;6.830;2022-12-20T13:30:25;11.10;99.90
35645;DHT22;21764;52.042;6.830;2022-12-20T13:40:44;11.10;99.90
35645;DHT22;21764;52.042;6.830;2022-12-20T13:45:49;11.10;99.90
35645;DHT22;21764;52.042;6.830;2022-12-20T13:51:00;11.20;99.90
35645;DHT22;21764;52.042;6.830;2022-12-20T14:01:29;10.90;99.90
35645;DHT22;21764;52.042;6.830;2022-12-20T14:06:30;10.90;99.90
35645;DHT22;21764;52.042;6.830;2022-12-20T14:11:31;10.70;99.90
35645;DHT22;21764;52.042;6.830;2022-12-20T14:16:32;10.70;99.90
35645;DHT22;21764;52.042;6.830;2022-12-20T14:21:35;10.70;99.90
35645;DHT22;21764;52.042;6.830;2022-12-20T14:26:41;10.70;99.90
35645;DHT22;21764;52.042;6.830;2022-12-20T14:31:49;10.60;99.90
35645;DHT22;21764;52.042;6.830;2022-12-20T14:36:50;10.60;99.90
35645;DHT22;21764;52.042;6.830;2022-12-20T14:42:27;10.50;99.90
35645;DHT22;21764;52.042;6.830;2022-12-20T14:47:29;10.50;99.90
35645;DHT22;21764;52.042;6.830;2022-12-20T14:52:37;10.60;99.90
35645;DHT22;21764;52.042;6.830;2022-12-20T14:57:50;10.50;99.90
35645;DHT22;21764;52.042;6.830;2022-12-20T15:03:13;10.60;99.90
35645;DHT22;21764;52.042;6.830;2022-12-20T15:08:36;10.70;99.90
35645;DHT22;21764;52.042;6.830;2022-12-20T15:13:47;10.60;99.90
35645;DHT22;21764;52.042;6.830;2022-12-20T15:18:53;10.70;99.90
35645;DHT22;21764;52.042;6.830;2022-12-20T15:23:55;10.70;99.90
35645;DHT22;21764;52.042;6.830;2022-12-20T15:28:56;10.70;99.90
35645;DHT22;21764;52.042;6.830;2022-12-20T15:33:57;10.70;99.90
35645;DHT22;21764;52.042;6.830;2022-12-20T15:38:58;10.70;99.90
35645;DHT22;21764;52.042;6.830;2022-12-20T15:49:56;10.60;99.90
35645;DHT22;21764;52.042;6.830;2022-12-20T16:00:57;10.60;99.90
35645;DHT22;21764;52.042;6.830;2022-12-20T16:05:59;10.60;99.90
35645;DHT22;21764;52.042;6.830;2022-12-20T16:16:42;10.60;99.90
35645;DHT22;21764;52.042;6.830;2022-12-20T16:21:47;10.50;99.90
35645;DHT22;21764;52.042;6.830;2022-12-20T16:26:48;10.50;99.90
35645;DHT22;21764;52.042;6.830;2022-12-20T16:31:49;10.50;99.90
35645;DHT22;21764;52.042;6.830;2022-12-20T16:36:50;10.50;99.90
35645;DHT22;21764;52.042;6.830;2022-12-20T16:41:51;10.50;99.90
35645;DHT22;21764;52.042;6.830;2022-12-20T16:46:52;10.50;99.90
35645;DHT22;21764;52.042;6.830;2022-12-20T16:51:53;10.50;99.90
35645;DHT22;21764;52.042;6.830;2022-12-20T16:57:02;10.50;99.90
35645;DHT22;21764;52.042;6.830;2022-12-20T17:07:49;10.50;99.90
35645;DHT22;21764;52.042;6.830;2022-12-20T17:18:49;10.50;99.90
35645;DHT22;21764;52.042;6.830;2022-12-20T17:23:51;10.50;99.90
35645;DHT22;21764;52.042;6.830;2022-12-20T17:28:54;10.50;99.90
35645;DHT22;21764;52.042;6.830;2022-12-20T17:33:57;10.50;99.90
35645;DHT22;21764;52.042;6.830;2022-12-20T17:38:58;10.50;99.90
35645;DHT22;21764;52.042;6.830;2022-12-20T17:49:56;10.50;99.90
35645;DHT22;21764;52.042;6.830;2022-12-20T17:54:56;10.40;99.90
35645;DHT22;21764;52.042;6.830;2022-12-20T17:59:57;10.50;99.90
35645;DHT22;21764;52.042;6.830;2022-12-20T18:04:58;10.50;99.90
35645;DHT22;21764;52.042;6.830;2022-12-20T18:09:58;10.50;99.90
35645;DHT22;21764;52.042;6.830;2022-12-20T18:14:59;10.50;99.90
35645;DHT22;21764;52.042;6.830;2022-12-20T18:20:00;10.50;99.90
35645;DHT22;21764;52.042;6.830;2022-12-20T18:25:01;10.40;99.90
35645;DHT22;21764;52.042;6.830;2022-12-20T18:30:13;10.40;99.90
35645;DHT22;21764;52.042;6.830;2022-12-20T18:35:14;10.40;99.90
35645;DHT22;21764;52.042;6.830;2022-12-20T18:40:14;10.30;99.90
35645;DHT22;21764;52.042;6.830;2022-12-20T18:45:15;10.30;99.90
35645;DHT22;21764;52.042;6.830;2022-12-20T18:50:17;10.30;99.90
35645;DHT22;21764;52.042;6.830;2022-12-20T18:55:18;10.20;99.90
35645;DHT22;21764;52.042;6.830;2022-12-20T19:00:19;10.20;99.90
35645;DHT22;21764;52.042;6.830;2022-12-20T19:05:20;10.20;99.90
35645;DHT22;21764;52.042;6.830;2022-12-20T19:10:20;10.20;99.90
35645;DHT22;21764;52.042;6.830;2022-12-20T19:15:21;10.20;99.90
35645;DHT22;21764;52.042;6.830;2022-12-20T19:20:22;10.20;99.90
35645;DHT22;21764;52.042;6.830;2022-12-20T19:25:22;10.20;99.90
35645;DHT22;21764;52.042;6.830;2022-12-20T19:30:24;10.20;99.90
35645;DHT22;21764;52.042;6.830;2022-12-20T19:35:24;10.20;99.90
35645;DHT22;21764;52.042;6.830;2022-12-20T19:40:25;10.20;99.90
35645;DHT22;21764;52.042;6.830;2022-12-20T19:45:26;10.20;99.90
35645;DHT22;21764;52.042;6.830;2022-12-20T19:50:26;10.30;99.90
35645;DHT22;21764;52.042;6.830;2022-12-20T19:55:27;10.30;99.90
35645;DHT22;21764;52.042;6.830;2022-12-20T20:00:28;10.20;99.90
35645;DHT22;21764;52.042;6.830;2022-12-20T20:05:28;10.20;99.90
35645;DHT22;21764;52.042;6.830;2022-12-20T20:10:29;10.30;99.90
35645;DHT22;21764;52.042;6.830;2022-12-20T20:15:30;10.20;99.90
35645;DHT22;21764;52.042;6.830;2022-12-20T20:20:30;10.30;99.90
35645;DHT22;21764;52.042;6.830;2022-12-20T20:25:34;10.30;99.90
35645;DHT22;21764;52.042;6.830;2022-12-20T20:30:41;10.30;99.90
35645;DHT22;21764;52.042;6.830;2022-12-20T20:35:42;10.30;99.90
35645;DHT22;21764;52.042;6.830;2022-12-20T20:40:43;10.20;99.90
35645;DHT22;21764;52.042;6.830;2022-12-20T20:45:44;10.20;99.90
35645;DHT22;21764;52.042;6.830;2022-12-20T20:50:45;10.20;99.90
35645;DHT22;21764;52.042;6.830;2022-12-20T20:55:46;10.20;99.90
35645;DHT22;21764;52.042;6.830;2022-12-20T21:00:50;10.20;99.90
35645;DHT22;21764;52.042;6.830;2022-12-20T21:05:51;10.20;99.90
35645;DHT22;21764;52.042;6.830;2022-12-20T21:10:52;10.20;99.90
35645;DHT22;21764;52.042;6.830;2022-12-20T21:15:52;10.20;99.90
35645;DHT22;21764;52.042;6.830;2022-12-20T21:20:56;10.20;99.90
35645;DHT22;21764;52.042;6.830;2022-12-20T21:25:59;10.20;99.90
35645;DHT22;21764;52.042;6.830;2022-12-20T21:31:01;10.20;99.90
35645;DHT22;21764;52.042;6.830;2022-12-20T21:36:09;10.20;99.90
35645;DHT22;21764;52.042;6.830;2022-12-20T21:41:13;10.20;99.90
35645;DHT22;21764;52.042;6.830;2022-12-20T21:46:14;10.20;99.90
35645;DHT22;21764;52.042;6.830;2022-12-20T21:51:18;10.20;99.90
35645;DHT22;21764;52.042;6.830;2022-12-20T21:56:22;10.20;99.90
35645;DHT22;21764;52.042;6.830;2022-12-20T22:01:25;10.20;99.90
35645;DHT22;21764;52.042;6.830;2022-12-20T22:06:26;10.10;99.90
35645;DHT22;21764;52.042;6.830;2022-12-20T22:11:27;10.10;99.90
35645;DHT22;21764;52.042;6.830;2022-12-20T22:16:29;10.20;99.90
35645;DHT22;21764;52.042;6.830;2022-12-20T22:21:32;10.10;99.90
35645;DHT22;21764;52.042;6.830;2022-12-20T22:26:33;10.10;99.90
35645;DHT22;21764;52.042;6.830;2022-12-20T22:31:34;10.10;99.90
35645;DHT22;21764;52.042;6.830;2022-12-20T22:36:35;10.10;99.90
35645;DHT22;21764;52.042;6.830;2022-12-20T22:41:38;10.10;99.90
35645;DHT22;21764;52.042;6.830;2022-12-20T22:46:39;10.10;99.90
35645;DHT22;21764;52.042;6.830;2022-12-20T22:51:40;10.10;99.90
35645;DHT22;21764;52.042;6.830;2022-12-20T22:56:41;10.10;99.90
35645;DHT22;21764;52.042;6.830;2022-12-20T23:01:41;10.10;99.90
35645;DHT22;21764;52.042;6.830;2022-12-20T23:06:42;10.10;99.90
35645;DHT22;21764;52.042;6.830;2022-12-20T23:11:43;10.10;99.90
35645;DHT22;21764;52.042;6.830;2022-12-20T23:17:03;10.10;99.90
35645;DHT22;21764;52.042;6.830;2022-12-20T23:22:04;10.10;99.90
35645;DHT22;21764;52.042;6.830;2022-12-20T23:27:23;10.10;99.90
35645;DHT22;21764;52.042;6.830;2022-12-20T23:32:24;10.10;99.90
35645;DHT22;21764;52.042;6.830;2022-12-20T23:37:26;10.10;99.90
35645;DHT22;21764;52.042;6.830;2022-12-20T23:42:27;10.00;99.90
35645;DHT22;21764;52.042;6.830;2022-12-20T23:47:30;10.00;99.90
35645;DHT22;21764;52.042;6.830;2022-12-20T23:52:30;9.90;99.90
35645;DHT22;21764;52.042;6.830;2022-12-20T23:57:31;9.90;99.90
